• Join FlightAware (Why Join?)
  • Login
  • US Flag 
01:43PM EDT


 

Airport Tracker/Info


-or-


 

Live Flight TrackerFlight Track Log ✈ UAL203 ✈ 19-Aug-2013 ✈ KBOS - KORD

Flight Track Log - Related Links

Times and Time Zones

All times are in EDT time to prevent confusion due to time zone crossing. See the UAL203 flight status page for this flight to view local times or setup timezone preferences in your user account.

Time Position Orientation Groundspeed Altitude Reporting Facility
EDT Latitude Longitude Course Direction KTS MPH feet Rate Location/Type
06:43AM 42.3500 -71.0167 300° West 165 190 600  Level KA90
06:44AM 42.3000 -70.9500 135° Southeast 239 275 3,600 2,400 Climbing KA90
06:45AM 42.3167 -70.8667 75° East 271 312 6,000 2,880 Climbing KA90
06:46AM 42.5461 -70.8064 340° North  Level FlightAware Approximate
06:46AM 42.3500 -70.7667 66° East 285 328 9,100  Level KA90
06:47AM 42.6145 -70.9003 308° West  Level FlightAware Approximate
06:47AM 42.4167 -70.7167 29° Northeast 307 353 11,200  Level KA90
06:48AM 42.6674 -71.0150 300° West  Level FlightAware Approximate
06:48AM 42.5278 -70.7639 343° North 404 465 13,900  Level Boston Center
06:49AM 42.5878 -70.8806 305° West 340 391 17,000 2,520 Climbing Boston Center
06:50AM 42.6392 -70.9839 304° West 352 405 18,900 1,980 Climbing Boston Center
06:51AM 42.6989 -71.1011 305° West 367 422 21,000 1,980 Climbing Boston Center
06:52AM 42.7336 -71.2303 290° West 373 429 23,000 1,500 Climbing Boston Center
06:53AM 42.7517 -71.3742 280° West 373 429 24,000 420 Climbing Boston Center
06:54AM 42.7675 -71.5181 279° West 384 442 23,900  Descending Boston Center
06:55AM 42.7814 -71.6792 277° West 389 448 24,000  Climbing Boston Center
06:56AM 42.7969 -71.8344 278° West 401 461 24,000  Level Boston Center
06:57AM 42.8142 -71.9931 278° West 414 476 24,000  Level Boston Center
06:58AM 42.8294 -72.1514 278° West 424 488 24,000 -60 Level Boston Center
06:59AM 42.8442 -72.2900 278° West 424 488 23,900 -60 Descending Boston Center
07:00AM 42.8611 -72.4428 279° West 424 488 23,900  Level Boston Center
07:01AM 42.8756 -72.6017 277° West 424 488 24,000  Climbing Boston Center
07:02AM 42.8875 -72.7717 276° West 424 488 24,000  Level Boston Center
07:03AM 42.9036 -72.9303 278° West 419 482 24,000  Level Boston Center
07:04AM 42.9197 -73.0694 279° West 425 489 24,000  Level Boston Center
07:05AM 42.9333 -73.2283 277° West 425 489 24,000 240 Level Boston Center
07:06AM 42.9425 -73.3844 275° West 425 489 24,500 1,680 Climbing Boston Center
07:07AM 42.9578 -73.5381 278° West 425 489 27,500 1,620 Climbing Boston Center
07:08AM 42.9689 -73.6858 276° West 407 468 27,900 180 Climbing Boston Center
07:09AM 42.9817 -73.8364 277° West 407 468 27,900  Level Boston Center
07:10AM 42.9964 -73.9900 278° West 407 468 27,900  Level Boston Center
07:11AM 43.0106 -74.1550 277° West 407 468 27,900  Level Boston Center
07:12AM 43.0228 -74.3089 276° West 407 468 28,000  Climbing Boston Center
07:13AM 43.0347 -74.4683 276° West 407 468 28,000  Level Boston Center
07:14AM 43.0483 -74.6278 277° West 414 476 28,000  Level Boston Center
07:15AM 43.0597 -74.7903 276° West 424 488 28,000  Level Boston Center
07:16AM 43.0731 -74.9528 276° West 429 494 28,000  Level Boston Center
07:17AM 43.0836 -75.1211 275° West 440 506 28,000  Level Boston Center
07:18AM 43.0964 -75.2864 276° West 445 512 28,000 -60 Level Boston Center
07:19AM 43.1086 -75.4550 276° West 445 512 27,900  Descending Boston Center
07:20AM 43.1208 -75.6206 276° West 445 512 28,000  Climbing Boston Center
07:21AM 43.1328 -75.7861 276° West 445 512 27,900 -60 Descending Boston Center
07:22AM 43.1444 -75.9575 275° West 445 512 27,900  Level Boston Center
07:24AM 43.1603 -76.2394 274° West 440 506 28,000  Climbing Cleveland Center
07:25AM 43.1625 -76.4103 271° West 440 506 27,900 -60 Descending Cleveland Center
07:26AM 43.1622 -76.5811 270° West 440 506 27,900  Level Cleveland Center
07:27AM 43.1589 -76.7294 268° West 440 506 28,000  Climbing Cleveland Center
07:28AM 43.1581 -76.8975 270° West 440 506 28,000  Level Cleveland Center
07:29AM 43.1569 -77.0653 270° West 440 506 28,000  Level Cleveland Center
07:30AM 43.1558 -77.2333 270° West 440 506 28,000  Level Cleveland Center
07:31AM 43.1544 -77.4042 269° West 445 512 28,000 660 Level Cleveland Center
07:32AM 43.1525 -77.5694 269° West 445 512 29,400 960 Climbing Cleveland Center
07:33AM 43.1506 -77.7347 269° West 445 512 30,000 300 Climbing Cleveland Center
07:34AM 43.1503 -77.9053 270° West 445 512 30,000  Level Cleveland Center
07:35AM 43.1461 -78.0933 268° West 445 512 30,000  Level Cleveland Center
07:36AM 43.1436 -78.2642 269° West 450 518 30,000  Level Cleveland Center
07:37AM 43.1406 -78.4381 269° West 455 524 30,000  Level Cleveland Center
07:38AM 43.1353 -78.6117 268° West 460 529 30,000  Level Cleveland Center
07:39AM 43.1319 -78.7825 269° West 460 529 30,000  Level Cleveland Center
07:40AM 43.1261 -78.9589 267° West 460 529 30,000  Level Cleveland Center
07:41AM 43.1222 -79.1325 268° West 460 529 30,000  Level Cleveland Center
07:42AM 43.1139 -79.3064 266° West 460 529 30,000  Level Cleveland Center
07:43AM 43.1114 -79.4797 269° West 460 529 30,000  Level Cleveland Center
07:44AM 43.0833 -79.6500 257° West 460 529 30,000  Level Toronto Center
07:45AM 43.0833 -79.8333 270° West 460 529 30,000  Level Toronto Center
07:46AM 43.0833 -80.0167 270° West 470 541 30,000  Level Toronto Center
07:47AM 43.0667 -80.1833 262° West 460 529 30,000  Level Toronto Center
07:48AM 43.0667 -80.3667 270° West 460 529 30,000  Level Toronto Center
07:49AM 43.0500 -80.5167 261° West 460 529 30,000  Level Toronto Center
07:50AM 43.0500 -80.7000 270° West 460 529 30,000  Level Toronto Center
07:51AM 43.0333 -80.8833 263° West 460 529 30,000  Level Toronto Center
07:52AM 43.0167 -81.0500 262° West 460 529 30,000  Level Toronto Center
07:53AM 43.0167 -81.2333 270° West 460 529 30,000  Level Toronto Center
07:54AM 43.0167 -81.4167 270° West 460 529 30,000  Level Toronto Center
07:55AM 43.0167 -81.6000 270° West 460 529 30,000  Level Toronto Center
07:56AM 43.0167 -81.7500 270° West 460 529 30,000  Level Toronto Center
07:57AM 43.0000 -81.9333 263° West 460 529 30,000  Level Toronto Center
07:58AM 43.0000 -82.1167 270° West 460 529 30,000  Level Toronto Center
07:59AM 43.0000 -82.3000 270° West 460 529 30,000  Level Toronto Center
08:00AM 43.0000 -82.4667 270° West 460 529 30,000 780 Level Toronto Center
08:01AM 43.0019 -82.6697 271° West 457 526 31,800 840 Climbing Cleveland Center
08:02AM 42.9967 -82.8342 268° West 452 520 32,000 60 Climbing Cleveland Center
08:03AM 42.9914 -83.0014 268° West 452 520 32,000  Level Cleveland Center
08:04AM 42.9856 -83.1689 267° West 447 514 32,000  Level Cleveland Center
08:05AM 42.9797 -83.3358 267° West 442 509 32,000  Level Cleveland Center
08:06AM 42.9733 -83.5031 267° West 442 509 32,000  Level Cleveland Center
08:07AM 42.9692 -83.6675 268° West 442 509 32,000  Level Cleveland Center
08:08AM 42.9564 -83.8314 264° West 437 503 32,000  Level Cleveland Center
08:09AM 42.9386 -84.0150 263° West 447 514 32,000  Level Cleveland Center
08:10AM 42.9231 -84.1814 263° West 447 514 32,000  Level Cleveland Center
08:11AM 42.9086 -84.3111 261° West 447 514 32,000  Level Cleveland Center
08:12AM 42.8997 -84.4225 264° West 442 509 32,000  Level Chicago Center
08:13AM 42.8831 -84.5889 262° West 444 511 32,000  Level Chicago Center
08:14AM 42.8628 -84.7886 262° West 446 513 32,000  Level Chicago Center
08:15AM 42.8453 -84.9586 262° West 453 521 32,000  Level Chicago Center
08:16AM 42.8269 -85.1269 262° West 450 518 32,000 -240 Level Chicago Center
08:17AM 42.8081 -85.2975 261° West 455 524 31,500 -1,200 Descending Chicago Center
08:18AM 42.7894 -85.4658 261° West 451 519 29,600 -1,860 Descending Chicago Center
08:19AM 42.7619 -85.6319 257° West 449 517 27,700 -2,340 Descending Chicago Center
08:20AM 42.7267 -85.8283 256° West 443 510 24,800 -2,580 Descending Chicago Center
08:21AM 42.6975 -85.9856 256° West 431 496 22,400 -2,280 Descending Chicago Center
08:22AM 42.6706 -86.1383 257° West 419 482 20,100 -1,200 Descending Chicago Center
08:23AM 42.6425 -86.2886 256° West 411 473 20,000 -1,200 Descending Chicago Center
08:24AM 42.6136 -86.4397 255° West 413 475 17,700 -2,280 Descending Chicago Center
08:25AM 42.5850 -86.5914 256° West 415 478 15,400 -2,100 Descending Chicago Center
08:27AM 42.5586 -86.7333 256° West 392 451 13,400 -2,160 Descending Chicago Center
08:28AM 42.5147 -86.8953 250° West 382 440 11,000 -1,680 Descending Chicago Center
08:29AM 42.4794 -87.0261 250° West 372 428 10,000 -540 Descending Chicago Center
08:30AM 42.4425 -87.1547 249° West 367 422 10,000 -120 Level Chicago Center
08:31AM 42.4072 -87.2675 247° West 327 376 9,800 -540 Descending Chicago Center
08:32AM 42.3281 -87.2753 184° South 284 327 9,000 -420 Descending Chicago Center
08:33AM 42.2369 -87.2686 177° South 290 334 9,000  Level Chicago Center
08:34AM 42.1569 -87.2625 177° South 289 333 9,000  Level Chicago Center
08:35AM 42.0767 -87.2567 177° South 290 334 9,000 -300 Level Chicago Center
08:36AM 42.0131 -87.2983 206° Southwest 279 321 8,400 -960 Descending Chicago Center
08:37AM 41.9869 -87.3914 249° West 269 310 7,100 -780 Descending Chicago Center
08:38AM 41.9828 -87.4978 267° West 240 276 6,800 -840 Descending Chicago Center
08:39AM 41.9833 -87.5778 271° West 221 254 5,400 -1,380 Descending Chicago Center
08:40AM 41.9833 -87.6500 270° West 216 249 4,300 -1,260 Descending Chicago TRACON
08:41AM 41.9833 -87.7167 270° West 211 243 3,300 -1,200 Descending Chicago TRACON
08:42AM 41.9833 -87.8000 270° West 179 206 1,900 -1,020 Descending Chicago TRACON
08:43AM 41.9833 -87.8500 270° West 146 168 1,300 -720 Descending Chicago TRACON